Time;durP1;ratioP1;P1;durP2;ratioP2;P2;SDS_P1;SDS_P2;PMS_P1;PMS_P2;Temp;Humidity;BMP_temperature;BMP_pressure;BME280_temperature;BME280_humidity;BME280_pressure;Samples;Min_cycle;Max_cycle;Signal;HPM_P1;HPM_P2
2022/03/08 00:02:30;;;;;;;21.05;15.27;;;;;;;-1.80;51.41;100755.56;10273336;28;20530;-81
2022/03/08 00:07:32;;;;;;;19.40;12.82;;;;;;;-2.16;51.32;100749.44;10273810;28;20682;-81
2022/03/08 00:12:34;;;;;;;18.90;12.32;;;;;;;-2.18;51.75;100750.25;10274859;28;20448;-81
2022/03/08 00:17:36;;;;;;;24.13;15.20;;;;;;;-2.23;52.14;100755.38;10274476;28;20051;-81
2022/03/08 00:22:39;;;;;;;24.08;15.52;;;;;;;-2.25;52.01;100759.66;10274354;28;20058;-81
2022/03/08 00:27:45;;;;;;;24.42;15.60;;;;;;;-2.27;52.27;100757.91;10272663;28;20428;-80
2022/03/08 00:32:48;;;;;;;19.25;13.43;;;;;;;-2.30;52.45;100763.00;10274264;28;20055;-81
2022/03/08 00:37:51;;;;;;;16.92;11.10;;;;;;;-2.36;52.88;100761.28;10273495;28;20077;-81
2022/03/08 00:42:53;;;;;;;15.30;10.90;;;;;;;-2.32;53.00;100757.03;10273962;28;20134;-81
2022/03/08 00:47:55;;;;;;;19.33;11.85;;;;;;;-2.32;53.02;100752.75;10274109;28;20134;-80
2022/03/08 00:52:58;;;;;;;15.95;11.32;;;;;;;-2.29;53.04;100749.38;10273007;28;20588;-81
2022/03/08 00:58:01;;;;;;;56.90;37.95;;;;;;;-2.40;53.37;100749.31;10273024;28;20056;-81
2022/03/08 01:03:03;;;;;;;28.63;17.20;;;;;;;-2.40;53.39;100744.19;10287981;28;20133;-81
2022/03/08 01:08:05;;;;;;;16.25;10.95;;;;;;;-2.35;53.31;100734.84;10273217;28;20101;-81
2022/03/08 01:13:07;;;;;;;16.88;11.10;;;;;;;-2.28;53.04;100730.56;10271786;28;20082;-81
2022/03/08 01:18:09;;;;;;;18.50;12.95;;;;;;;-2.38;53.02;100726.25;10273368;28;20053;-81
2022/03/08 01:23:11;;;;;;;17.52;12.60;;;;;;;-2.55;53.37;100709.97;10272673;28;20058;-81
2022/03/08 01:28:12;;;;;;;17.80;11.02;;;;;;;-2.52;53.78;100708.28;10271961;28;20061;-81
2022/03/08 01:33:15;;;;;;;14.70;11.02;;;;;;;-2.49;53.68;100705.69;10272581;28;20704;-81
2022/03/08 01:38:16;;;;;;;14.50;10.48;;;;;;;-2.61;53.48;100702.25;10273018;28;20047;-81
2022/03/08 01:43:18;;;;;;;16.17;11.20;;;;;;;-2.67;53.63;100692.81;10272373;28;20158;-81
2022/03/08 01:48:20;;;;;;;19.20;11.38;;;;;;;-2.64;53.51;100682.59;10271936;28;20047;-81
2022/03/08 01:53:22;;;;;;;17.23;11.20;;;;;;;-2.58;53.24;100687.75;10272439;28;20073;-81
2022/03/08 01:58:24;;;;;;;12.98;9.55;;;;;;;-2.61;53.25;100687.72;10270921;28;20050;-81
2022/03/08 02:03:25;;;;;;;15.25;10.70;;;;;;;-2.59;53.12;100683.47;10272006;28;20054;-81
2022/03/08 02:08:27;;;;;;;14.68;9.60;;;;;;;-2.57;53.03;100683.50;10272599;28;20142;-81
2022/03/08 02:13:29;;;;;;;14.68;10.10;;;;;;;-2.63;52.98;100693.69;10272140;28;20058;-81
2022/03/08 02:18:32;;;;;;;13.93;10.07;;;;;;;-2.70;53.10;100689.38;10272128;28;20539;-81
2022/03/08 02:23:34;;;;;;;15.10;10.05;;;;;;;-2.85;53.31;100695.25;10272770;28;20065;-81
2022/03/08 02:28:36;;;;;;;16.40;10.73;;;;;;;-3.02;53.60;100684.06;10276958;28;20161;-82
2022/03/08 02:33:38;;;;;;;17.55;11.73;;;;;;;-3.04;53.82;100670.41;10276926;28;20138;-81
2022/03/08 02:38:40;;;;;;;14.80;9.90;;;;;;;-3.03;53.81;100670.41;10278310;28;20051;-81
2022/03/08 02:43:42;;;;;;;16.40;10.20;;;;;;;-2.96;53.60;100659.34;10277848;28;21067;-81
2022/03/08 02:48:44;;;;;;;19.27;10.63;;;;;;;-2.96;53.75;100650.84;10277936;28;20130;-81
2022/03/08 02:53:46;;;;;;;19.88;11.43;;;;;;;-2.98;53.50;100647.44;10278574;28;20065;-81
2022/03/08 02:58:47;;;;;;;16.05;11.13;;;;;;;-3.05;53.80;100640.53;10277611;28;20055;-81
2022/03/08 03:03:49;;;;;;;16.27;10.45;;;;;;;-3.28;54.18;100637.81;10281708;28;20068;-81
2022/03/08 03:08:51;;;;;;;19.55;11.65;;;;;;;-3.26;54.15;100645.53;10282506;28;20130;-81
2022/03/08 03:13:52;;;;;;;19.35;11.05;;;;;;;-3.30;54.26;100636.09;10283321;28;20141;-81
2022/03/08 03:18:54;;;;;;;16.63;10.77;;;;;;;-3.31;54.54;100642.94;10282823;28;20042;-81
2022/03/08 03:23:56;;;;;;;13.93;10.45;;;;;;;-3.30;54.37;100641.22;10281795;28;20141;-81
2022/03/08 03:28:57;;;;;;;15.90;11.60;;;;;;;-3.37;54.58;100634.34;10282549;28;20134;-81
2022/03/08 03:33:59;;;;;;;20.13;11.00;;;;;;;-3.43;54.81;100631.75;10280215;28;20169;-81
2022/03/08 03:39:03;;;;;;;17.98;11.82;;;;;;;-3.55;55.19;100644.44;10279239;28;20057;-81
2022/03/08 03:44:05;;;;;;;15.48;11.20;;;;;;;-3.59;55.78;100642.69;10294342;28;20078;-81
2022/03/08 03:49:07;;;;;;;16.73;10.75;;;;;;;-3.62;55.71;100632.44;10279534;28;20126;-81
2022/03/08 03:54:08;;;;;;;15.63;10.63;;;;;;;-3.60;55.80;100633.31;10281257;28;20063;-80
2022/03/08 03:59:10;;;;;;;15.65;10.18;;;;;;;-3.61;55.79;100645.25;10280749;28;20066;-81
2022/03/08 04:04:12;;;;;;;11.98;9.70;;;;;;;-3.63;55.85;100635.84;10278440;28;20061;-81
2022/03/08 04:09:14;;;;;;;14.57;10.75;;;;;;;-3.69;55.99;100637.50;10275639;28;20047;-81
2022/03/08 04:14:16;;;;;;;16.05;10.05;;;;;;;-3.78;56.16;100640.00;10275248;28;20141;-81
2022/03/08 04:19:18;;;;;;;15.20;10.23;;;;;;;-3.90;56.83;100634.75;10273421;28;20059;-81
2022/03/08 04:24:20;;;;;;;14.30;10.38;;;;;;;-3.83;56.69;100633.97;10274042;28;20137;-81
2022/03/08 04:29:22;;;;;;;15.43;10.50;;;;;;;-3.81;56.83;100623.75;10274062;28;20416;-81
2022/03/08 04:34:24;;;;;;;19.40;12.57;;;;;;;-3.83;56.87;100620.31;10274807;28;20138;-81
2022/03/08 04:39:25;;;;;;;15.82;11.68;;;;;;;-3.91;56.98;100615.16;10274418;28;20047;-81
2022/03/08 04:44:27;;;;;;;16.17;11.35;;;;;;;-3.93;57.29;100611.72;10273575;28;20133;-81
2022/03/08 04:49:29;;;;;;;14.32;10.82;;;;;;;-3.94;57.50;100609.16;10274011;28;20065;-81
2022/03/08 04:54:30;;;;;;;18.58;11.15;;;;;;;-3.92;57.54;100607.47;10274310;28;20055;-81
2022/03/08 04:59:32;;;;;;;17.55;11.38;;;;;;;-3.93;57.30;100608.31;10273415;28;20065;-81
2022/03/08 05:04:34;;;;;;;15.23;10.55;;;;;;;-3.97;57.56;100610.00;10288291;28;20047;-81
2022/03/08 05:09:36;;;;;;;15.05;11.20;;;;;;;-4.05;57.70;100605.63;10289150;28;20053;-81
2022/03/08 05:14:37;;;;;;;19.08;12.18;;;;;;;-4.09;57.58;100609.88;10273824;28;21258;-82
2022/03/08 05:19:39;;;;;;;16.20;11.38;;;;;;;-4.18;57.93;100608.94;10273008;28;20051;-82
2022/03/08 05:24:41;;;;;;;16.77;11.23;;;;;;;-4.27;58.10;100602.03;10272419;28;20062;-81
2022/03/08 05:29:43;;;;;;;15.93;11.32;;;;;;;-4.24;58.23;100596.94;10271059;28;20093;-81
2022/03/08 05:34:44;;;;;;;16.77;10.80;;;;;;;-4.21;58.24;100598.66;10272609;28;20473;-81
2022/03/08 05:39:46;;;;;;;17.98;11.27;;;;;;;-4.17;57.95;100606.38;10267491;28;20129;-82
2022/03/08 05:44:48;;;;;;;17.88;10.77;;;;;;;-4.29;58.12;100605.41;10272056;28;20205;-82
2022/03/08 05:49:50;;;;;;;18.00;11.20;;;;;;;-4.45;58.26;100621.38;10272774;28;20081;-81
2022/03/08 05:54:51;;;;;;;17.65;11.40;;;;;;;-4.37;58.50;100633.41;10273706;28;20079;-82
2022/03/08 05:59:53;;;;;;;16.42;11.10;;;;;;;-4.30;58.40;100637.72;10275127;28;20576;-82
2022/03/08 06:04:55;;;;;;;20.00;12.77;;;;;;;-4.27;58.42;100640.31;10279784;28;20148;-81
2022/03/08 06:09:56;;;;;;;17.95;12.10;;;;;;;-4.18;58.19;100645.53;10280765;28;20051;-81
2022/03/08 06:14:58;;;;;;;15.38;11.50;;;;;;;-4.04;58.13;100646.56;10279823;28;20078;-82
2022/03/08 06:20:00;;;;;;;16.23;11.73;;;;;;;-3.87;57.90;100652.66;10280289;28;20146;-82
2022/03/08 06:25:02;;;;;;;15.45;10.88;;;;;;;-3.72;57.85;100646.84;10276024;28;20074;-82
2022/03/08 06:30:05;;;;;;;16.33;11.15;;;;;;;-3.56;57.67;100652.94;10279160;28;20051;-81
2022/03/08 06:35:07;;;;;;;13.77;10.13;;;;;;;-3.40;57.32;100645.41;10279726;28;20059;-82
2022/03/08 06:40:09;;;;;;;13.32;9.40;;;;;;;-3.21;57.07;100644.72;10279470;28;20173;-82
2022/03/08 06:45:11;;;;;;;14.20;9.27;;;;;;;-3.04;56.95;100653.34;10293712;28;20061;-82
2022/03/08 06:50:13;;;;;;;15.68;10.38;;;;;;;-2.91;56.71;100654.28;10277253;28;20061;-82
2022/03/08 06:55:14;;;;;;;16.83;10.80;;;;;;;-2.75;56.71;100655.25;10277947;28;20078;-82
2022/03/08 07:00:16;;;;;;;15.70;10.98;;;;;;;-2.56;56.65;100652.75;10277755;28;20079;-82
2022/03/08 07:05:18;;;;;;;16.98;11.18;;;;;;;-2.37;56.27;100656.25;10278710;28;20314;-82
2022/03/08 07:10:20;;;;;;;17.10;12.40;;;;;;;-2.22;56.26;100654.59;10277345;28;20134;-82
2022/03/08 07:15:21;;;;;;;19.05;12.82;;;;;;;-2.14;56.23;100658.03;10277616;28;20059;-82
2022/03/08 07:20:24;;;;;;;17.83;12.18;;;;;;;-2.13;56.20;100662.34;10271271;28;20706;-81
2022/03/08 07:25:25;;;;;;;23.40;14.63;;;;;;;-2.11;56.14;100650.38;10274437;28;20412;-82
2022/03/08 07:30:27;;;;;;;16.38;10.98;;;;;;;-1.94;55.60;100647.00;10277741;28;20129;-82
2022/03/08 07:35:29;;;;;;;15.20;10.70;;;;;;;-1.76;55.40;100647.88;10276941;28;20431;-82
2022/03/08 07:40:31;;;;;;;16.02;10.35;;;;;;;-1.59;54.92;100641.03;10275728;28;20133;-82
2022/03/08 07:45:33;;;;;;;14.15;9.95;;;;;;;-1.49;54.85;100650.44;10276363;28;20065;-82
2022/03/08 07:50:36;;;;;;;13.98;9.77;;;;;;;-1.29;54.53;100635.91;10276210;28;20055;-82
2022/03/08 07:55:38;;;;;;;18.23;10.23;;;;;;;-0.99;54.28;100642.72;10276729;28;20054;-82
2022/03/08 08:00:41;;;;;;;14.10;9.80;;;;;;;-0.27;53.19;100633.94;10275228;28;20137;-82
2022/03/08 08:05:43;;;;;;;15.13;10.23;;;;;;;0.35;52.01;100636.97;10275144;28;20070;-82
2022/03/08 08:10:45;;;;;;;15.15;9.95;;;;;;;0.74;51.19;100638.38;10275260;28;20150;-81
2022/03/08 08:15:47;;;;;;;18.55;10.25;;;;;;;1.04;50.88;100639.78;10273778;28;20674;-82
2022/03/08 08:20:52;;;;;;;17.88;10.32;;;;;;;1.24;50.03;100646.47;10274026;28;20401;-82
2022/03/08 08:25:54;;;;;;;14.32;10.15;;;;;;;1.72;49.72;100637.31;10273270;28;20064;-82
2022/03/08 08:30:56;;;;;;;14.85;10.60;;;;;;;1.89;48.85;100634.53;10273241;28;20137;-82
2022/03/08 08:35:58;;;;;;;17.10;10.68;;;;;;;1.96;48.76;100633.53;10273769;28;20153;-82
2022/03/08 08:41:00;;;;;;;15.23;9.68;;;;;;;2.26;48.18;100630.53;10269889;28;20148;-82
2022/03/08 08:46:03;;;;;;;17.17;10.10;;;;;;;2.60;47.82;100625.72;10274050;28;20055;-82
2022/03/08 08:51:05;;;;;;;15.88;10.48;;;;;;;3.12;47.23;100615.28;10273005;28;20504;-82
2022/03/08 08:56:07;;;;;;;15.02;9.95;;;;;;;3.03;46.46;100606.84;10274090;28;20141;-82
2022/03/08 09:01:09;;;;;;;14.52;10.43;;;;;;;3.55;46.10;100605.81;10271715;28;20488;-82
2022/03/08 09:06:11;;;;;;;15.70;10.68;;;;;;;3.93;45.20;100597.28;10272481;28;20062;-81
2022/03/08 09:11:13;;;;;;;16.35;10.95;;;;;;;4.05;44.97;100591.84;10287700;28;20053;-82
2022/03/08 09:16:15;;;;;;;18.35;10.32;;;;;;;4.40;44.46;100595.31;10272791;28;20060;-82
2022/03/08 09:21:16;;;;;;;12.63;8.00;;;;;;;4.87;43.04;100583.75;10272335;28;20054;-82
2022/03/08 09:26:18;;;;;;;11.57;7.70;;;;;;;5.38;42.38;100584.06;10272945;28;20051;-82
2022/03/08 09:31:20;;;;;;;15.98;10.05;;;;;;;5.57;42.25;100563.66;10271908;28;20162;-82
2022/03/08 09:36:22;;;;;;;18.00;9.98;;;;;;;5.89;41.87;100563.53;10278513;28;20058;-82
2022/03/08 09:41:25;;;;;;;13.20;8.85;;;;;;;5.85;41.63;100555.00;10279704;28;20104;-82
2022/03/08 09:46:27;;;;;;;8.55;5.75;;;;;;;5.87;40.33;100544.56;10280984;28;20129;-82
2022/03/08 09:51:29;;;;;;;6.55;4.47;;;;;;;6.32;38.62;100541.41;10280765;28;20170;-82
2022/03/08 09:56:31;;;;;;;7.57;4.30;;;;;;;6.82;37.36;100541.41;10278982;28;20094;-83
2022/03/08 10:01:33;;;;;;;7.53;4.28;;;;;;;7.06;34.83;100532.78;10278726;28;20055;-82
2022/03/08 10:06:41;;;;;;;8.32;4.20;;;;;;;7.13;34.08;100536.84;10280002;28;20214;-83
2022/03/08 10:11:53;;;;;;;5.85;4.38;;;;;;;7.28;33.08;100533.69;10278813;28;20055;-83
2022/03/08 10:16:59;;;;;;;;;;;;;;;7.03;32.32;100530.28;10276886;28;20074;-82
2022/03/08 10:22:01;;;;;;;8.20;4.60;;;;;;;7.31;34.03;100522.28;10278069;28;19930;-82
2022/03/08 10:27:06;;;;;;;6.97;4.32;;;;;;;7.29;33.42;100527.56;10278911;28;20126;-83
2022/03/08 10:32:17;;;;;;;6.15;4.60;;;;;;;7.52;32.51;100509.34;10277469;28;20133;-82
2022/03/08 10:37:23;;;;;;;7.45;4.88;;;;;;;7.60;33.25;100512.50;10277369;28;20059;-83
2022/03/08 10:42:34;;;;;;;6.47;4.70;;;;;;;7.45;32.41;100512.25;10277681;28;20129;-83
2022/03/08 10:47:57;;;;;;;9.30;5.20;;;;;;;7.37;32.52;100509.91;10276055;28;20050;-83
2022/03/08 10:53:01;;;;;;;8.00;4.82;;;;;;;7.26;32.94;100500.81;10275108;28;20050;-81
2022/03/08 10:58:13;;;;;;;7.68;5.32;;;;;;;7.22;32.08;100500.09;10272353;28;20140;-81
2022/03/08 11:03:18;;;;;;;12.35;6.25;;;;;;;7.29;32.78;100495.50;10275786;28;20126;-81
2022/03/08 11:08:28;;;;;;;8.02;5.60;;;;;;;7.22;32.67;100491.44;10274813;28;20555;-81
2022/03/08 11:13:30;;;;;;;9.10;5.50;;;;;;;7.00;33.45;100483.56;10271049;28;20070;-82
2022/03/08 11:18:32;;;;;;;10.25;5.07;;;;;;;6.99;33.20;100492.28;10275723;28;20057;-82
2022/03/08 11:23:35;;;;;;;7.47;5.30;;;;;;;7.12;33.24;100490.94;10273024;28;20843;-81
2022/03/08 11:28:46;;;;;;;7.28;5.32;;;;;;;6.99;31.95;100481.88;10273016;28;20133;-82
2022/03/08 11:33:59;;;;;;;7.72;5.00;;;;;;;7.11;32.34;100482.28;10274119;28;20068;-82
2022/03/08 11:39:29;;;;;;;9.43;5.43;;;;;;;7.30;31.86;100461.63;10273529;28;20456;-81
2022/03/08 11:44:35;;;;;;;8.07;5.10;;;;;;;7.50;32.86;100450.44;10272072;28;20057;-81
2022/03/08 11:49:38;;;;;;;9.95;5.72;;;;;;;7.61;32.94;100438.69;10266221;28;20105;-81
2022/03/08 11:54:40;;;;;;;8.05;5.63;;;;;;;7.52;33.12;100446.03;10270330;28;20065;-81
2022/03/08 12:00:17;;;;;;;10.75;5.95;;;;;;;7.54;31.47;100442.47;10270362;28;20439;-82
2022/03/08 12:05:40;;;;;;;9.35;6.35;;;;;;;7.39;33.54;100429.19;10262306;28;20153;-82
2022/03/08 12:10:45;;;;;;;9.57;5.38;;;;;;;7.49;31.66;100426.16;10271527;28;20523;-82
2022/03/08 12:16:05;;;;;;;7.55;5.28;;;;;;;7.73;30.76;100419.97;10271615;28;20105;-82
2022/03/08 12:21:18;;;;;;;8.52;5.93;;;;;;;7.82;31.62;100417.03;10272465;28;20051;-82
2022/03/08 12:26:37;;;;;;;8.38;5.57;;;;;;;7.99;31.10;100414.59;10271006;28;20970;-82
2022/03/08 12:31:58;;;;;;;9.70;5.07;;;;;;;8.17;31.21;100414.75;10284130;28;20077;-82
2022/03/08 12:37:07;;;;;;;8.57;5.18;;;;;;;8.33;29.98;100405.34;10271437;28;20089;-82
2022/03/08 12:42:16;;;;;;;8.15;5.65;;;;;;;8.57;30.46;100380.81;10271036;28;20097;-82
2022/03/08 12:47:44;;;;;;;7.53;5.47;;;;;;;8.72;31.03;100386.22;10269096;28;20069;-82
2022/03/08 12:52:54;;;;;;;8.10;5.40;;;;;;;8.83;30.05;100385.75;10271563;28;20051;-83
2022/03/08 13:04:25;;;;;;;6.97;4.75;;;;;;;8.92;30.24;100380.09;10264843;28;20940;-81
2022/03/08 13:09:27;;;;;;;7.70;5.38;;;;;;;9.00;29.32;100382.34;10285542;28;20134;-81
2022/03/08 13:14:28;;;;;;;7.75;4.90;;;;;;;9.05;29.27;100367.34;10263932;28;20146;-81
2022/03/08 13:19:36;;;;;;;7.93;5.20;;;;;;;9.16;28.35;100381.56;10268344;28;21025;-81
2022/03/08 13:25:02;;;;;;;6.30;5.00;;;;;;;9.22;29.16;100373.44;10268710;28;20161;-81
2022/03/08 13:30:21;;;;;;;6.40;4.50;;;;;;;9.27;28.60;100371.47;10267960;28;20141;-81
2022/03/08 13:35:23;;;;;;;8.80;4.82;;;;;;;9.31;28.84;100372.16;10269088;28;20141;-81
2022/03/08 13:40:32;;;;;;;8.50;3.97;;;;;;;9.37;27.11;100371.88;10269161;28;20110;-81
2022/03/08 13:45:40;;;;;;;7.10;4.05;;;;;;;9.55;27.73;100361.41;10268976;28;20065;-81
2022/03/08 13:50:45;;;;;;;6.65;4.20;;;;;;;9.46;28.13;100353.19;10268065;28;20053;-80
2022/03/08 13:55:47;;;;;;;7.15;4.20;;;;;;;9.47;27.13;100362.69;10268789;28;20082;-80
2022/03/08 14:00:51;;;;;;;9.93;4.10;;;;;;;9.67;26.72;100367.00;10269871;28;20130;-81
2022/03/08 14:06:01;;;;;;;6.80;4.03;;;;;;;9.41;25.72;100355.16;10267664;28;20063;-80
2022/03/08 14:11:16;;;;;;;8.37;3.93;;;;;;;9.45;25.96;100351.47;10266670;28;20117;-80
2022/03/08 14:16:41;;;;;;;5.90;3.90;;;;;;;9.55;26.03;100344.88;10266424;28;20064;-80
2022/03/08 14:21:48;;;;;;;6.03;4.30;;;;;;;9.72;25.46;100346.69;10267497;28;20058;-80
2022/03/08 14:27:02;;;;;;;6.82;4.20;;;;;;;9.73;25.04;100346.59;10289610;28;20058;-80
2022/03/08 14:32:08;;;;;;;5.95;3.97;;;;;;;9.82;26.38;100335.72;10270072;28;20470;-80
2022/03/08 14:37:14;;;;;;;9.00;4.13;;;;;;;9.83;25.85;100337.38;10268834;28;20074;-80
2022/03/08 14:42:18;;;;;;;6.72;4.20;;;;;;;9.86;26.72;100345.09;10274088;28;20078;-80
2022/03/08 14:47:30;;;;;;;9.50;4.20;;;;;;;9.73;25.48;100349.22;10272881;28;20512;-80
2022/03/08 14:52:35;;;;;;;7.30;4.50;;;;;;;9.75;26.36;100347.38;10273087;28;20054;-79
2022/03/08 14:57:37;;;;;;;6.40;4.47;;;;;;;9.65;26.98;100336.53;10271604;28;20267;-79
2022/03/08 15:02:43;;;;;;;7.05;3.95;;;;;;;9.74;26.34;100342.25;10274471;28;20054;-82
2022/03/08 15:07:46;;;;;;;9.85;4.20;;;;;;;9.86;26.56;100328.56;10272141;28;20082;-81
2022/03/08 15:12:48;;;;;;;5.32;3.75;;;;;;;9.75;25.91;100325.66;10275252;28;20169;-83
2022/03/08 15:17:52;;;;;;;10.07;4.15;;;;;;;9.72;25.44;100338.84;10274374;28;20058;-83
2022/03/08 15:22:55;;;;;;;7.63;4.13;;;;;;;9.58;25.62;100334.28;10273643;28;20175;-83
2022/03/08 15:27:58;;;;;;;6.57;4.20;;;;;;;9.46;25.60;100334.91;10273729;28;20661;-84
2022/03/08 15:33:01;;;;;;;6.18;4.28;;;;;;;9.51;25.99;100323.31;10273199;28;20142;-82
2022/03/08 15:38:06;;;;;;;9.63;4.25;;;;;;;9.40;25.94;100329.97;10272705;28;20496;-82
2022/03/08 15:43:09;;;;;;;7.40;4.05;;;;;;;9.38;25.83;100332.63;10274869;28;20047;-82
2022/03/08 15:48:11;;;;;;;8.55;4.30;;;;;;;9.39;26.02;100334.34;10272834;28;20089;-83
2022/03/08 15:53:15;;;;;;;6.90;4.00;;;;;;;9.31;26.05;100331.25;10272971;28;20105;-83
2022/03/08 15:58:17;;;;;;;6.38;3.90;;;;;;;9.17;26.12;100325.00;10269365;28;20141;-82
2022/03/08 16:03:19;;;;;;;6.97;4.00;;;;;;;9.09;26.64;100324.53;10271631;28;20055;-83
2022/03/08 16:08:23;;;;;;;7.00;3.75;;;;;;;8.99;26.33;100329.34;10273271;28;20055;-82
2022/03/08 16:13:28;;;;;;;6.47;4.30;;;;;;;8.84;26.45;100325.69;10272939;28;20620;-82
2022/03/08 16:18:30;;;;;;;7.78;4.00;;;;;;;8.70;26.42;100324.63;10272103;28;20117;-82
2022/03/08 16:23:34;;;;;;;6.38;3.97;;;;;;;8.60;26.49;100332.03;10271651;28;20047;-82
2022/03/08 16:28:35;;;;;;;7.60;4.40;;;;;;;8.51;27.29;100332.41;10273521;28;20046;-82
2022/03/08 16:33:39;;;;;;;6.82;4.20;;;;;;;8.33;28.12;100327.19;10272218;28;20093;-82
2022/03/08 16:38:41;;;;;;;6.38;4.00;;;;;;;8.07;28.51;100332.66;10264997;28;20523;-81
2022/03/08 16:43:43;;;;;;;8.63;4.20;;;;;;;7.88;28.59;100330.84;10267231;28;20157;-82
2022/03/08 16:48:47;;;;;;;6.18;4.00;;;;;;;7.77;29.30;100337.41;10270970;28;20466;-81
2022/03/08 16:53:49;;;;;;;7.32;4.30;;;;;;;7.68;28.84;100340.38;10268502;28;20547;-81
2022/03/08 16:58:51;;;;;;;7.38;4.13;;;;;;;7.47;29.38;100354.31;10267598;28;20130;-80
2022/03/08 17:03:53;;;;;;;6.90;4.50;;;;;;;7.27;29.63;100347.28;10266084;28;20570;-80
2022/03/08 17:08:56;;;;;;;9.30;4.40;;;;;;;7.14;29.63;100361.69;10264737;28;20420;-80
2022/03/08 17:14:03;;;;;;;14.73;5.40;;;;;;;6.98;29.50;100363.16;10268850;28;20085;-80
2022/03/08 17:19:05;;;;;;;8.10;5.07;;;;;;;6.81;30.15;100363.81;10267362;28;20135;-80
2022/03/08 17:24:07;;;;;;;8.27;4.57;;;;;;;6.60;30.29;100374.13;10266294;28;20059;-80
2022/03/08 17:29:09;;;;;;;7.85;4.55;;;;;;;6.47;30.43;100378.09;10267281;28;20074;-79
2022/03/08 17:34:11;;;;;;;9.68;4.80;;;;;;;6.28;30.65;100377.91;10267665;28;20156;-81
2022/03/08 17:39:13;;;;;;;7.20;4.60;;;;;;;6.13;31.12;100381.84;10263104;28;20393;-80
2022/03/08 17:44:14;;;;;;;9.57;5.22;;;;;;;5.91;31.64;100393.84;10267068;28;20046;-80
2022/03/08 17:49:21;;;;;;;10.65;5.55;;;;;;;5.77;31.89;100396.06;10264125;28;20047;-80
2022/03/08 17:54:26;;;;;;;9.73;5.90;;;;;;;5.53;32.78;100396.84;10264328;28;20382;-80
2022/03/08 17:59:28;;;;;;;12.38;7.55;;;;;;;5.29;33.21;100407.97;10273556;28;20118;-80
2022/03/08 18:04:30;;;;;;;10.18;5.72;;;;;;;5.16;33.57;100411.84;10274484;28;20174;-80
2022/03/08 18:09:36;;;;;;;10.10;6.43;;;;;;;5.08;33.83;100426.78;10271011;28;20047;-80
2022/03/08 18:14:39;;;;;;;8.32;5.00;;;;;;;5.00;33.63;100426.16;10266655;28;20485;-80
2022/03/08 18:19:41;;;;;;;11.43;5.30;;;;;;;4.88;34.23;100431.69;10272598;28;20058;-80
2022/03/08 18:24:44;;;;;;;12.90;6.90;;;;;;;4.75;34.25;100431.19;10270802;28;20073;-80
2022/03/08 18:29:47;;;;;;;12.82;6.57;;;;;;;4.51;35.16;100432.72;10269871;28;20186;-80
2022/03/08 18:35:05;;;;;;;12.98;6.57;;;;;;;4.14;36.59;100442.34;10272733;28;20585;-80
2022/03/08 18:40:11;;;;;;;9.95;6.05;;;;;;;3.93;36.33;100447.19;10270426;28;20158;-80
2022/03/08 18:45:15;;;;;;;10.00;5.90;;;;;;;3.90;37.21;100447.28;10273365;28;20109;-79
2022/03/08 18:50:17;;;;;;;13.95;7.30;;;;;;;3.66;37.03;100441.75;10270751;28;20771;-79
2022/03/08 18:55:20;;;;;;;11.95;7.63;;;;;;;3.47;37.80;100442.22;10271541;28;20181;-79
2022/03/08 19:00:22;;;;;;;15.25;7.63;;;;;;;3.30;37.89;100445.19;10273337;28;20069;-80
2022/03/08 19:05:25;;;;;;;12.07;8.30;;;;;;;3.25;39.01;100446.19;10273638;28;20102;-82
2022/03/08 19:10:27;;;;;;;13.85;8.82;;;;;;;3.16;38.71;100452.41;10277438;28;20129;-80
2022/03/08 19:15:29;;;;;;;18.67;11.05;;;;;;;3.11;39.41;100455.97;10274680;28;20137;-80
2022/03/08 19:20:45;;;;;;;18.60;11.43;;;;;;;3.07;39.65;100463.78;10276202;28;20059;-81
2022/03/08 19:25:47;;;;;;;17.00;10.07;;;;;;;3.05;39.59;100457.78;10280662;28;20133;-79
2022/03/08 19:30:49;;;;;;;20.23;9.23;;;;;;;3.09;39.53;100460.31;10274447;28;20528;-80
2022/03/08 19:35:52;;;;;;;13.82;8.85;;;;;;;3.05;39.94;100468.13;10273677;28;20061;-80
2022/03/08 19:40:53;;;;;;;23.08;12.63;;;;;;;2.96;40.55;100465.75;10273334;28;20137;-80
2022/03/08 19:45:55;;;;;;;18.23;9.60;;;;;;;2.76;40.72;100459.28;10269087;28;20121;-83
2022/03/08 19:50:59;;;;;;;14.40;7.00;;;;;;;2.65;41.38;100469.81;10273226;28;20053;-80
2022/03/08 19:56:03;;;;;;;13.32;8.15;;;;;;;2.62;40.81;100467.25;10272227;28;20058;-80
2022/03/08 20:01:05;;;;;;;13.85;8.15;;;;;;;2.58;41.50;100469.97;10272660;28;20146;-80
2022/03/08 20:06:07;;;;;;;16.45;10.00;;;;;;;2.47;42.00;100474.47;10272260;28;20141;-80
2022/03/08 20:11:09;;;;;;;21.27;12.77;;;;;;;2.36;42.11;100466.91;10270738;28;20161;-80
2022/03/08 20:16:11;;;;;;;20.35;11.82;;;;;;;2.30;42.13;100469.59;10268514;28;20497;-80
2022/03/08 20:21:14;;;;;;;22.27;11.82;;;;;;;2.14;41.81;100460.41;10268875;28;20054;-80
2022/03/08 20:26:16;;;;;;;22.05;13.40;;;;;;;1.81;42.83;100459.25;10270525;28;20133;-80
2022/03/08 20:31:17;;;;;;;20.45;12.90;;;;;;;1.62;42.63;100469.88;10269385;28;20074;-80
2022/03/08 20:36:19;;;;;;;22.17;12.68;;;;;;;1.55;43.47;100483.72;10269296;28;20054;-80
2022/03/08 20:41:21;;;;;;;19.20;11.38;;;;;;;1.57;43.22;100492.28;10268665;28;20242;-80
2022/03/08 20:46:23;;;;;;;19.48;12.02;;;;;;;1.48;43.56;100503.59;10270751;28;20145;-80
2022/03/08 20:51:25;;;;;;;33.72;17.48;;;;;;;1.29;43.86;100504.69;10270291;28;20061;-80
2022/03/08 20:56:27;;;;;;;16.58;10.30;;;;;;;1.10;44.45;100505.78;10267773;28;20102;-80
2022/03/08 21:01:29;;;;;;;14.55;9.15;;;;;;;0.97;44.91;100506.81;10268286;28;20053;-79
2022/03/08 21:06:32;;;;;;;15.60;9.13;;;;;;;0.96;45.11;100523.13;10269513;28;20042;-80
2022/03/08 21:11:34;;;;;;;21.58;11.00;;;;;;;0.88;45.22;100523.22;10270190;28;20047;-73
2022/03/08 21:16:36;;;;;;;16.42;9.88;;;;;;;0.78;45.54;100525.91;10279158;28;20097;-73
2022/03/08 21:21:38;;;;;;;13.05;8.02;;;;;;;0.65;45.96;100534.66;10264125;28;20057;-73
2022/03/08 21:26:41;;;;;;;13.10;8.10;;;;;;;0.53;46.37;100533.91;10279238;28;20138;-73
2022/03/08 21:31:43;;;;;;;22.42;11.65;;;;;;;0.39;46.71;100537.47;10270380;28;20477;-73
2022/03/08 21:36:45;;;;;;;19.30;10.20;;;;;;;0.31;46.99;100541.81;10272408;28;20050;-72
2022/03/08 21:41:47;;;;;;;14.10;9.10;;;;;;;0.36;47.34;100538.31;10272614;28;20960;-73
2022/03/08 21:46:49;;;;;;;14.32;8.00;;;;;;;0.44;46.39;100546.00;10272520;28;20564;-72
2022/03/08 21:51:52;;;;;;;13.38;8.20;;;;;;;0.07;46.72;100548.03;10272096;28;20062;-73
2022/03/08 21:56:54;;;;;;;17.77;9.57;;;;;;;-0.26;47.76;100562.81;10271175;28;20146;-72
2022/03/08 22:01:57;;;;;;;11.85;7.53;;;;;;;-0.35;47.42;100559.44;10271591;28;20117;-72
2022/03/08 22:06:59;;;;;;;19.25;8.30;;;;;;;-0.32;47.83;100559.44;10271579;28;20971;-72
2022/03/08 22:12:01;;;;;;;19.17;11.65;;;;;;;-0.29;48.34;100561.09;10271811;28;20081;-72
2022/03/08 22:17:03;;;;;;;23.92;12.70;;;;;;;-0.24;48.51;100571.34;10271192;28;20185;-72
2022/03/08 22:22:05;;;;;;;19.45;9.07;;;;;;;-0.18;48.55;100576.47;10269883;28;20059;-72
2022/03/08 22:27:06;;;;;;;13.63;8.07;;;;;;;-0.23;48.66;100579.09;10270243;28;20162;-73
2022/03/08 22:32:08;;;;;;;14.73;9.27;;;;;;;-0.24;48.54;100584.22;10270811;28;20137;-72
2022/03/08 22:37:10;;;;;;;22.13;14.85;;;;;;;-0.23;48.91;100588.50;10270874;28;20142;-72
2022/03/08 22:42:12;;;;;;;20.60;11.90;;;;;;;-0.21;48.96;100589.34;10270573;28;20057;-72
2022/03/08 22:47:14;;;;;;;17.15;10.13;;;;;;;-0.28;48.66;100587.66;10270602;28;20095;-72
2022/03/08 22:52:16;;;;;;;14.27;8.25;;;;;;;-0.31;48.55;100591.94;10270222;28;20162;-72
2022/03/08 22:57:18;;;;;;;15.85;10.55;;;;;;;-0.44;48.96;100592.91;10268363;28;20158;-72
2022/03/08 23:02:23;;;;;;;16.10;10.10;;;;;;;-0.67;49.54;100594.69;10269406;28;20523;-72
2022/03/08 23:07:25;;;;;;;15.30;11.07;;;;;;;-0.72;49.56;100601.56;10270118;28;20077;-72
2022/03/08 23:12:27;;;;;;;15.18;9.40;;;;;;;-1.26;50.46;100609.41;10269077;28;20091;-73
2022/03/08 23:17:28;;;;;;;15.20;9.85;;;;;;;-1.46;50.61;100611.13;10268861;28;20050;-72